createdAt,value
2023-04-30T00:00:37.355Z,20.0273
2023-04-30T00:01:39.010Z,20.0075
2023-04-30T00:02:40.640Z,19.9948
2023-04-30T00:03:42.396Z,20.0359
2023-04-30T00:04:43.870Z,20.0217
2023-04-30T00:05:45.638Z,20.0474
2023-04-30T00:06:47.358Z,20.0207
2023-04-30T00:07:48.892Z,20.0316
2023-04-30T00:08:50.465Z,20.0694
2023-04-30T00:09:52.352Z,20.1131
2023-04-30T00:10:53.812Z,20.0825
2023-04-30T00:11:55.489Z,20.0299
2023-04-30T00:12:57.074Z,20.0041
2023-04-30T00:13:58.771Z,20.0195
2023-04-30T00:15:00.341Z,20.0213
2023-04-30T00:16:02.222Z,20.0191
2023-04-30T00:17:03.653Z,20.0102
2023-04-30T00:18:05.431Z,20.0102
2023-04-30T00:19:06.950Z,20.0295
2023-04-30T00:20:08.639Z,20.0129
2023-04-30T00:21:10.355Z,20.0067
2023-04-30T00:22:11.932Z,19.9977
2023-04-30T00:23:13.560Z,20.0038
2023-04-30T00:24:15.249Z,20.0162
2023-04-30T00:25:16.854Z,20.0439
2023-04-30T00:26:18.521Z,20.0252
2023-04-30T00:27:20.137Z,19.9903
2023-04-30T00:28:21.829Z,19.9753
2023-04-30T00:29:23.428Z,20.0041
2023-04-30T00:30:25.085Z,20.0330
2023-04-30T00:31:26.773Z,20.0225
2023-04-30T00:32:28.500Z,20.0246
2023-04-30T00:33:30.073Z,19.9691
2023-04-30T00:34:31.678Z,19.9665
2023-04-30T00:35:33.391Z,19.9461
2023-04-30T00:36:34.977Z,19.9418
2023-04-30T00:37:36.616Z,19.9630
2023-04-30T00:38:38.272Z,19.9704
2023-04-30T00:39:39.923Z,20.0176
2023-04-30T00:40:41.567Z,20.0429
2023-04-30T00:41:43.197Z,20.0560
2023-04-30T00:42:44.905Z,19.9882
2023-04-30T00:43:46.437Z,19.9718
2023-04-30T00:44:48.137Z,19.9850
2023-04-30T00:45:49.763Z,19.9104
2023-04-30T00:46:51.497Z,19.9278
2023-04-30T00:47:53.121Z,19.9640
2023-04-30T00:48:54.690Z,19.9038
2023-04-30T00:49:56.506Z,19.8759
2023-04-30T00:50:58.796Z,19.9188
2023-04-30T00:51:59.654Z,19.9511
2023-04-30T00:53:01.366Z,19.9465
2023-04-30T00:54:02.926Z,19.9470
2023-04-30T00:55:04.577Z,19.9377
2023-04-30T00:56:06.202Z,19.9133
2023-04-30T00:57:07.962Z,19.8933
2023-04-30T00:58:09.545Z,19.8660
2023-04-30T00:59:11.132Z,19.8603
2023-04-30T01:00:12.786Z,19.8147
2023-04-30T01:01:14.442Z,19.8219
2023-04-30T01:02:16.184Z,19.8256
2023-04-30T01:03:17.868Z,19.8469
2023-04-30T01:04:19.379Z,19.9225
2023-04-30T01:05:20.989Z,19.9632
2023-04-30T01:06:22.805Z,19.9778
2023-04-30T01:07:24.415Z,19.9303
2023-04-30T01:08:26.060Z,19.9090
2023-04-30T01:09:27.680Z,19.8730
2023-04-30T01:10:29.370Z,19.8484
2023-04-30T01:11:30.866Z,19.8219
2023-04-30T01:12:32.623Z,19.8097
2023-04-30T01:13:34.249Z,19.7978
2023-04-30T01:14:35.864Z,19.8393
2023-04-30T01:15:37.485Z,19.8913
2023-04-30T01:16:39.128Z,19.8804
2023-04-30T01:17:40.847Z,19.9336
2023-04-30T01:18:42.583Z,19.9663
2023-04-30T01:19:44.047Z,19.9946
2023-04-30T01:20:45.740Z,19.9950
2023-04-30T01:21:47.358Z,19.9406
2023-04-30T01:22:49.130Z,19.9159
2023-04-30T01:23:50.650Z,19.9163
2023-04-30T01:24:52.310Z,19.9065
2023-04-30T01:25:53.971Z,19.8465
2023-04-30T01:26:55.590Z,19.7834
2023-04-30T01:27:57.241Z,19.8518
2023-04-30T01:28:58.931Z,19.8317
2023-04-30T01:30:00.536Z,19.8364
2023-04-30T01:31:02.210Z,19.9133
2023-04-30T01:32:03.796Z,19.9808
2023-04-30T01:33:05.544Z,19.9757
2023-04-30T01:34:07.089Z,19.9453
2023-04-30T01:35:08.753Z,19.9116
2023-04-30T01:36:10.374Z,19.9003
2023-04-30T01:37:12.021Z,19.8512
2023-04-30T01:38:13.667Z,19.8075
2023-04-30T01:39:15.366Z,19.7929
2023-04-30T01:40:16.900Z,19.7991
2023-04-30T01:41:18.630Z,19.7991
2023-04-30T01:42:20.233Z,19.8091
2023-04-30T01:43:21.906Z,19.8194
2023-04-30T01:44:23.623Z,19.8293
2023-04-30T01:45:25.260Z,19.8769
2023-04-30T01:46:26.774Z,19.9098
2023-04-30T01:47:28.351Z,19.9375
2023-04-30T01:48:30.031Z,19.9431
2023-04-30T01:49:31.681Z,19.9537
2023-04-30T01:50:33.347Z,19.9239
2023-04-30T01:51:34.986Z,19.8307
2023-04-30T01:52:36.650Z,19.7639
2023-04-30T01:53:38.330Z,19.7161
2023-04-30T01:54:39.933Z,19.7268
2023-04-30T01:55:41.880Z,19.7880
2023-04-30T01:56:43.211Z,19.8568
2023-04-30T01:57:44.868Z,19.9276
2023-04-30T01:58:46.554Z,19.9796
2023-04-30T01:59:48.244Z,20.0127
2023-04-30T02:00:50.386Z,19.9527
2023-04-30T02:01:51.550Z,19.9293
2023-04-30T02:02:53.197Z,19.9098
2023-04-30T02:03:54.915Z,19.8699
2023-04-30T02:04:57.454Z,19.8104
2023-04-30T02:05:58.384Z,19.7487
2023-04-30T02:06:59.735Z,19.7931
2023-04-30T02:08:01.417Z,19.8303
2023-04-30T02:09:03.211Z,19.8847
2023-04-30T02:10:04.751Z,19.9283
2023-04-30T02:11:06.343Z,19.9116
2023-04-30T02:12:08.851Z,19.9654
2023-04-30T02:13:09.608Z,20.0014
2023-04-30T02:14:11.930Z,19.9622
2023-04-30T02:15:12.918Z,19.9104
2023-04-30T02:16:14.690Z,19.8952
2023-04-30T02:17:16.153Z,19.8601
2023-04-30T02:18:18.910Z,19.8668
2023-04-30T02:19:19.482Z,19.8699
2023-04-30T02:20:21.163Z,19.9301
2023-04-30T02:21:22.840Z,20.0082
2023-04-30T02:22:24.415Z,20.0702
2023-04-30T02:23:26.070Z,20.0523
2023-04-30T02:24:28.404Z,20.0306
2023-04-30T02:25:29.536Z,19.9698
2023-04-30T02:26:31.179Z,19.9221
2023-04-30T02:27:32.794Z,19.9287
2023-04-30T02:28:34.454Z,19.8927
2023-04-30T02:29:36.108Z,19.9143
2023-04-30T02:30:37.721Z,19.8901
2023-04-30T02:31:39.515Z,19.8537
2023-04-30T02:32:41.111Z,19.9108
2023-04-30T02:33:42.670Z,19.9246
2023-04-30T02:34:44.333Z,19.9112
2023-04-30T02:35:45.908Z,19.9704
2023-04-30T02:36:47.640Z,19.9580
2023-04-30T02:37:49.307Z,19.9085
2023-04-30T02:38:50.970Z,19.9137
2023-04-30T02:39:52.676Z,19.9340
2023-04-30T02:40:54.210Z,19.9202
2023-04-30T02:41:55.896Z,19.9137
2023-04-30T02:42:57.549Z,19.9145
2023-04-30T02:43:59.096Z,19.8206
2023-04-30T02:45:00.795Z,19.8141
2023-04-30T02:46:02.488Z,19.8128
2023-04-30T02:47:04.077Z,19.8687
2023-04-30T02:48:05.810Z,19.9480
2023-04-30T02:49:07.361Z,19.9860
2023-04-30T02:50:09.008Z,20.0075
2023-04-30T02:51:10.709Z,19.9936
2023-04-30T02:52:12.362Z,20.0151
2023-04-30T02:53:13.938Z,19.9946
2023-04-30T02:54:15.578Z,19.9426
2023-04-30T02:55:17.232Z,19.9293
2023-04-30T02:56:18.860Z,19.9042
2023-04-30T02:57:20.544Z,19.9005
2023-04-30T02:58:22.156Z,19.8773
2023-04-30T02:59:24.776Z,19.8833
2023-04-30T03:00:25.633Z,19.8420
2023-04-30T03:01:27.182Z,19.8315
2023-04-30T03:02:28.839Z,19.8796
2023-04-30T03:03:30.489Z,19.8833
2023-04-30T03:04:32.008Z,19.8859
2023-04-30T03:05:33.755Z,19.8864
2023-04-30T03:06:35.343Z,19.8753
2023-04-30T03:07:37.035Z,19.8744
2023-04-30T03:08:38.650Z,19.8469
2023-04-30T03:09:40.308Z,19.8229
2023-04-30T03:10:41.952Z,19.8034
2023-04-30T03:11:43.557Z,19.8547
2023-04-30T03:12:45.214Z,19.8175
2023-04-30T03:13:46.916Z,19.8262
2023-04-30T03:14:48.485Z,19.8646
2023-04-30T03:15:50.267Z,19.9441
2023-04-30T03:16:52.673Z,20.0295
2023-04-30T03:17:53.512Z,20.0472
2023-04-30T03:18:55.054Z,19.9886
2023-04-30T03:19:56.927Z,19.9663
2023-04-30T03:20:58.301Z,19.9747
2023-04-30T03:21:59.982Z,19.9461
2023-04-30T03:23:01.623Z,19.8701
2023-04-30T03:24:03.316Z,19.8237
2023-04-30T03:25:04.934Z,19.8420
2023-04-30T03:26:06.580Z,19.8798
2023-04-30T03:27:08.201Z,19.8617
2023-04-30T03:28:09.971Z,19.9225
2023-04-30T03:29:11.518Z,19.9504
2023-04-30T03:30:13.239Z,19.9412
2023-04-30T03:31:14.865Z,19.9048
2023-04-30T03:32:16.472Z,19.8572
2023-04-30T03:33:18.265Z,19.8282
2023-04-30T03:34:20.538Z,19.7691
2023-04-30T03:35:21.410Z,19.8506
2023-04-30T03:36:23.155Z,19.8475
2023-04-30T03:37:24.663Z,19.8348
2023-04-30T03:38:26.446Z,19.8779
2023-04-30T03:39:27.995Z,19.8979
2023-04-30T03:40:29.668Z,19.9556
2023-04-30T03:41:31.270Z,19.9747
2023-04-30T03:42:32.987Z,19.9539
2023-04-30T03:43:34.665Z,19.9318
2023-04-30T03:44:36.275Z,19.9022
2023-04-30T03:45:37.862Z,19.8461
2023-04-30T03:46:39.598Z,19.7865
2023-04-30T03:47:41.187Z,19.7726
2023-04-30T03:48:42.885Z,19.8136
2023-04-30T03:49:44.454Z,19.8588
2023-04-30T03:50:46.151Z,19.8668
2023-04-30T03:51:47.750Z,19.9163
2023-04-30T03:52:49.451Z,19.9726
2023-04-30T03:53:51.115Z,20.0990
2023-04-30T03:54:52.730Z,20.2181
2023-04-30T03:55:54.364Z,20.2811
2023-04-30T03:56:55.995Z,20.2908
2023-04-30T03:57:57.666Z,20.3791
2023-04-30T03:58:59.291Z,20.6244
2023-04-30T04:00:00.940Z,20.8608
2023-04-30T04:01:02.607Z,21.0750
2023-04-30T04:02:04.294Z,21.2293
2023-04-30T04:03:05.905Z,21.3626
2023-04-30T04:04:07.617Z,21.4612
2023-04-30T04:05:09.203Z,21.5278
2023-04-30T04:06:10.848Z,21.6278
2023-04-30T04:07:12.469Z,21.6586
2023-04-30T04:08:14.151Z,21.6475
2023-04-30T04:09:15.790Z,21.7313
2023-04-30T04:10:17.447Z,21.7059
2023-04-30T04:11:19.060Z,21.8326
2023-04-30T04:12:20.727Z,22.0016
2023-04-30T04:13:22.353Z,22.1109
2023-04-30T04:14:24.148Z,22.2738
2023-04-30T04:15:25.664Z,22.4459
2023-04-30T04:16:27.342Z,22.5472
2023-04-30T04:17:29.052Z,22.6144
2023-04-30T04:18:30.685Z,22.6571
2023-04-30T04:19:32.301Z,22.6797
2023-04-30T04:20:33.933Z,22.7477
2023-04-30T04:21:35.531Z,22.8140
2023-04-30T04:22:37.262Z,22.8980
2023-04-30T04:23:38.857Z,23.0502
2023-04-30T04:24:41.564Z,23.2585
2023-04-30T04:25:42.167Z,23.4767
2023-04-30T04:26:44.223Z,23.6704
2023-04-30T04:27:45.424Z,23.7603
2023-04-30T04:28:47.119Z,23.7833
2023-04-30T04:29:48.779Z,23.8133
2023-04-30T04:30:50.363Z,23.8532
2023-04-30T04:31:52.009Z,23.8493
2023-04-30T04:32:53.718Z,23.8146
2023-04-30T04:33:55.320Z,23.8228
2023-04-30T04:34:57.026Z,23.8719
2023-04-30T04:35:58.577Z,23.9475
2023-04-30T04:37:00.274Z,24.0278
2023-04-30T04:38:01.866Z,24.0937
2023-04-30T04:39:03.581Z,24.1504
2023-04-30T04:40:05.176Z,24.1948
2023-04-30T04:41:06.934Z,24.2426
2023-04-30T04:42:08.480Z,24.2724
2023-04-30T04:43:10.109Z,24.2936
2023-04-30T04:44:11.814Z,24.2761
2023-04-30T04:45:13.497Z,24.3036
2023-04-30T04:46:15.163Z,24.3542
2023-04-30T04:47:16.732Z,24.4119
2023-04-30T04:48:18.342Z,24.4830
2023-04-30T04:49:20.081Z,24.5520
2023-04-30T04:50:21.714Z,24.6062
2023-04-30T04:51:23.344Z,24.6395
2023-04-30T04:52:24.908Z,24.7222
2023-04-30T04:53:26.618Z,24.8050
2023-04-30T04:54:28.216Z,24.8736
2023-04-30T04:55:29.917Z,24.8985
2023-04-30T04:56:31.527Z,24.9125
2023-04-30T04:57:33.156Z,24.9603
2023-04-30T04:58:34.819Z,24.9897
2023-04-30T04:59:36.464Z,25.0456
2023-04-30T05:00:38.174Z,25.1368
2023-04-30T05:01:39.854Z,25.1998
2023-04-30T05:02:41.487Z,25.2230
2023-04-30T05:03:43.130Z,25.2138
2023-04-30T05:04:44.724Z,25.2115
2023-04-30T05:05:46.434Z,25.2078
2023-04-30T05:06:48.088Z,25.1939
2023-04-30T05:07:49.626Z,25.2224
2023-04-30T05:08:51.277Z,25.2898
2023-04-30T05:09:53.200Z,25.3900
2023-04-30T05:10:54.653Z,25.4311
2023-04-30T05:11:56.241Z,25.4862
2023-04-30T05:12:57.886Z,25.5176
2023-04-30T05:13:59.609Z,25.5367
2023-04-30T05:15:01.248Z,25.6168
2023-04-30T05:16:02.872Z,25.6889
2023-04-30T05:17:04.497Z,25.7033
2023-04-30T05:18:06.247Z,25.7836
2023-04-30T05:19:07.797Z,25.8323
2023-04-30T05:20:09.402Z,25.8910
2023-04-30T05:21:11.225Z,25.9021
2023-04-30T05:22:13.136Z,25.9405
2023-04-30T05:23:14.402Z,25.9843
2023-04-30T05:24:16.050Z,25.9980
2023-04-30T05:25:17.664Z,26.0488
2023-04-30T05:26:20.002Z,26.0903
2023-04-30T05:27:20.995Z,26.1309
2023-04-30T05:28:22.613Z,26.1529
2023-04-30T05:29:24.296Z,26.1870
2023-04-30T05:30:25.890Z,26.2067
2023-04-30T05:31:27.538Z,26.2190
2023-04-30T05:32:29.306Z,26.2404
2023-04-30T05:33:30.845Z,26.2899
2023-04-30T05:34:32.506Z,26.3538
2023-04-30T05:35:34.094Z,26.3776
2023-04-30T05:36:35.800Z,26.3959
2023-04-30T05:37:37.546Z,26.4378
2023-04-30T05:38:39.131Z,26.4524
2023-04-30T05:39:40.706Z,26.4822
2023-04-30T05:40:42.422Z,26.5187
2023-04-30T05:41:43.995Z,26.5590
2023-04-30T05:42:45.696Z,26.5929
2023-04-30T05:43:47.300Z,26.6157
2023-04-30T05:44:49.155Z,26.6196
2023-04-30T05:45:50.673Z,26.6917
2023-04-30T05:46:52.302Z,26.7254
2023-04-30T05:47:53.954Z,26.7702
2023-04-30T05:48:55.578Z,26.7901
2023-04-30T05:49:57.220Z,26.8032
2023-04-30T05:50:58.829Z,26.8291
2023-04-30T05:52:00.454Z,26.8833
2023-04-30T05:53:02.617Z,26.9236
2023-04-30T05:54:03.781Z,26.9628
2023-04-30T05:55:05.452Z,26.9881
2023-04-30T05:56:07.128Z,27.0222
2023-04-30T05:57:09.581Z,27.0429
2023-04-30T05:58:10.585Z,27.0717
2023-04-30T05:59:12.092Z,27.0916
2023-04-30T06:00:13.680Z,27.0709
2023-04-30T06:01:15.385Z,27.0700
2023-04-30T06:02:17.033Z,27.1329
2023-04-30T06:03:19.746Z,27.1923
2023-04-30T06:04:20.375Z,27.2294
2023-04-30T06:05:22.007Z,27.2658
2023-04-30T06:06:23.662Z,27.2989
2023-04-30T06:07:25.226Z,27.3157
2023-04-30T06:08:27.154Z,27.3543
2023-04-30T06:09:28.519Z,27.3562
2023-04-30T06:10:30.267Z,27.3895
2023-04-30T06:11:31.926Z,27.4289
2023-04-30T06:12:33.546Z,27.4297
2023-04-30T06:13:35.170Z,27.4548
2023-04-30T06:14:36.943Z,27.5277
2023-04-30T06:15:38.465Z,27.5263
2023-04-30T06:16:40.134Z,27.4170
2023-04-30T06:17:41.715Z,27.0520
2023-04-30T06:18:43.506Z,26.7430
2023-04-30T06:19:45.026Z,26.8792
2023-04-30T06:20:46.730Z,27.0627
2023-04-30T06:21:48.324Z,27.1978
2023-04-30T06:22:50.047Z,27.3087
2023-04-30T06:23:52.122Z,27.4038
2023-04-30T06:24:53.322Z,27.4546
2023-04-30T06:25:54.923Z,27.5094
2023-04-30T06:26:56.598Z,27.5626
2023-04-30T06:27:58.213Z,27.5901
2023-04-30T06:28:59.999Z,27.6164
2023-04-30T06:30:01.523Z,27.6396
2023-04-30T06:31:03.227Z,27.4297
2023-04-30T06:32:05.849Z,26.8924
2023-04-30T06:33:06.591Z,26.8307
2023-04-30T06:34:08.086Z,27.0362
2023-04-30T06:35:09.771Z,27.2257
2023-04-30T06:36:11.404Z,27.3270
2023-04-30T06:37:14.116Z,27.4088
2023-04-30T06:38:14.672Z,27.4542
2023-04-30T06:39:16.374Z,27.5162
2023-04-30T06:40:17.990Z,27.5562
2023-04-30T06:41:19.643Z,27.5901
2023-04-30T06:42:21.285Z,27.6144
2023-04-30T06:43:22.959Z,27.5651
2023-04-30T06:44:24.622Z,27.3389
2023-04-30T06:45:26.222Z,27.1411
2023-04-30T06:46:27.966Z,27.1335
2023-04-30T06:47:29.531Z,27.3149
2023-04-30T06:48:31.160Z,27.5158
2023-04-30T06:49:32.825Z,27.6477
2023-04-30T06:50:34.473Z,27.7050
2023-04-30T06:51:36.091Z,27.7612
2023-04-30T06:52:37.775Z,27.7169
2023-04-30T06:53:39.379Z,27.5838
2023-04-30T06:54:41.588Z,27.4589
2023-04-30T06:55:42.869Z,27.3716
2023-04-30T06:56:44.337Z,27.4330
2023-04-30T06:57:45.949Z,27.5115
2023-04-30T06:58:47.632Z,27.5158
2023-04-30T06:59:49.355Z,27.5528
2023-04-30T07:00:50.892Z,27.6060
2023-04-30T07:01:52.603Z,27.5339
2023-04-30T07:02:54.296Z,27.2044
2023-04-30T07:03:56.051Z,26.8942
2023-04-30T07:04:57.558Z,26.9199
2023-04-30T07:05:59.167Z,27.0536
2023-04-30T07:07:00.827Z,27.1816
2023-04-30T07:08:02.466Z,27.2085
2023-04-30T07:09:04.111Z,27.2044
2023-04-30T07:10:05.783Z,27.2200
2023-04-30T07:11:07.384Z,27.3003
2023-04-30T07:12:09.060Z,27.4659
2023-04-30T07:13:10.644Z,27.6092
2023-04-30T07:14:12.330Z,27.6084
2023-04-30T07:15:14.012Z,27.6027
2023-04-30T07:16:15.739Z,27.4127
2023-04-30T07:17:17.286Z,26.8529
2023-04-30T07:18:18.950Z,26.4010
2023-04-30T07:19:20.600Z,26.4887
2023-04-30T07:20:22.244Z,26.6383
2023-04-30T07:21:23.846Z,26.7605
2023-04-30T07:22:25.544Z,26.8252
2023-04-30T07:23:28.491Z,26.8815
2023-04-30T07:24:28.844Z,26.9250
2023-04-30T07:25:30.460Z,26.9129
2023-04-30T07:26:32.609Z,26.9571
2023-04-30T07:27:33.704Z,26.9774
2023-04-30T07:28:35.414Z,27.0027
2023-04-30T07:29:37.011Z,27.0195
2023-04-30T07:30:39.049Z,27.0244
2023-04-30T07:31:40.430Z,27.0481
2023-04-30T07:32:41.999Z,27.0908
2023-04-30T07:33:43.602Z,27.1163
2023-04-30T07:34:45.286Z,27.1417
2023-04-30T07:35:46.944Z,27.1446
2023-04-30T07:36:49.632Z,27.1707
2023-04-30T07:37:50.181Z,27.2112
2023-04-30T07:38:51.901Z,27.1056
2023-04-30T07:39:53.664Z,26.7089
2023-04-30T07:40:55.167Z,26.3980
2023-04-30T07:41:56.825Z,26.3932
2023-04-30T07:42:58.436Z,26.4464
2023-04-30T07:44:00.183Z,26.5241
2023-04-30T07:45:01.764Z,26.6079
2023-04-30T07:46:03.494Z,26.6853
2023-04-30T07:47:05.080Z,26.6905
2023-04-30T07:48:06.749Z,26.6816
2023-04-30T07:49:08.318Z,26.7307
2023-04-30T07:50:09.926Z,26.7447
2023-04-30T07:51:11.689Z,26.7270
2023-04-30T07:52:13.248Z,26.7478
2023-04-30T07:53:14.942Z,26.7465
2023-04-30T07:54:16.540Z,26.7679
2023-04-30T07:55:18.268Z,26.7880
2023-04-30T07:56:20.558Z,26.7839
2023-04-30T07:57:21.519Z,26.7825
2023-04-30T07:58:23.172Z,26.8024
2023-04-30T07:59:24.769Z,26.8065
2023-04-30T08:00:26.463Z,26.8441
2023-04-30T08:01:28.176Z,26.8429
2023-04-30T08:02:29.853Z,26.8114
2023-04-30T08:03:31.451Z,26.8363
2023-04-30T08:04:33.019Z,26.8757
2023-04-30T08:05:34.708Z,26.8819
2023-04-30T08:06:37.089Z,26.8895
2023-04-30T08:07:38.035Z,26.8589
2023-04-30T08:08:39.648Z,26.8628
2023-04-30T08:09:41.319Z,26.8519
2023-04-30T08:10:42.937Z,26.8277
2023-04-30T08:11:44.573Z,26.8683
2023-04-30T08:12:46.222Z,26.8928
2023-04-30T08:13:47.887Z,26.8685
2023-04-30T08:14:49.513Z,26.8657
2023-04-30T08:15:52.197Z,26.9088
2023-04-30T08:16:53.036Z,26.9178
2023-04-30T08:17:54.697Z,26.9028
2023-04-30T08:18:56.235Z,26.8714
2023-04-30T08:19:57.934Z,26.8653
2023-04-30T08:20:59.503Z,26.8568
2023-04-30T08:22:02.226Z,26.8593
2023-04-30T08:23:03.671Z,26.8533
2023-04-30T08:24:04.508Z,26.8630
2023-04-30T08:25:06.137Z,26.8371
2023-04-30T08:26:07.785Z,26.8474
2023-04-30T08:27:09.444Z,26.8455
2023-04-30T08:28:11.155Z,26.8499
2023-04-30T08:29:13.671Z,26.8895
2023-04-30T08:30:15.266Z,26.9259
2023-04-30T08:31:16.048Z,26.9419
2023-04-30T08:32:17.882Z,26.9107
2023-04-30T08:33:19.431Z,26.9232
2023-04-30T08:34:20.919Z,26.9248
2023-04-30T08:35:22.657Z,26.9343
2023-04-30T08:36:24.313Z,26.9396
2023-04-30T08:37:25.932Z,26.9298
2023-04-30T08:38:28.349Z,26.9156
2023-04-30T08:39:29.177Z,26.9203
2023-04-30T08:40:49.478Z,26.9104
2023-04-30T08:41:33.444Z,26.9086
2023-04-30T08:42:34.128Z,26.9201
2023-04-30T08:43:35.758Z,26.9039
2023-04-30T08:44:37.377Z,26.9000
2023-04-30T08:45:39.098Z,26.8757
2023-04-30T08:46:40.716Z,26.8577
2023-04-30T08:47:42.385Z,26.8377
2023-04-30T08:48:44.050Z,26.8079
2023-04-30T08:49:46.581Z,26.8053
2023-04-30T08:50:47.295Z,26.8121
2023-04-30T08:51:49.768Z,26.8116
2023-04-30T08:52:50.555Z,26.8195
2023-04-30T08:53:52.110Z,26.8229
2023-04-30T08:54:53.892Z,26.8139
2023-04-30T08:55:55.497Z,26.8180
2023-04-30T08:56:57.169Z,26.7983
2023-04-30T08:57:58.738Z,26.7716
2023-04-30T08:59:00.613Z,26.8158
2023-04-30T09:00:02.051Z,26.8184
2023-04-30T09:01:03.851Z,26.8455
2023-04-30T09:02:05.668Z,26.8724
2023-04-30T09:03:07.149Z,26.8897
2023-04-30T09:04:08.864Z,26.9080
2023-04-30T09:05:10.263Z,26.9378
2023-04-30T09:06:11.988Z,26.8942
2023-04-30T09:07:13.586Z,26.8601
2023-04-30T09:08:15.211Z,26.5370
2023-04-30T09:09:16.989Z,26.0496
2023-04-30T09:10:18.562Z,25.6069
2023-04-30T09:11:20.156Z,25.3204
2023-04-30T09:12:22.038Z,25.1433
2023-04-30T09:13:23.473Z,25.1327
2023-04-30T09:14:25.136Z,25.3070
2023-04-30T09:15:26.774Z,25.4406
2023-04-30T09:16:28.495Z,25.4968
2023-04-30T09:17:30.165Z,25.5839
2023-04-30T09:18:31.726Z,25.6579
2023-04-30T09:19:33.359Z,25.7361
2023-04-30T09:20:35.082Z,25.8238
2023-04-30T09:21:36.733Z,25.8822
2023-04-30T09:22:38.331Z,25.9305
2023-04-30T09:23:40.116Z,25.9374
2023-04-30T09:24:41.575Z,25.9935
2023-04-30T09:25:43.213Z,26.0118
2023-04-30T09:26:45.851Z,26.0829
2023-04-30T09:27:46.479Z,26.1198
2023-04-30T09:28:48.246Z,26.1032
2023-04-30T09:29:49.821Z,26.0759
2023-04-30T09:30:51.591Z,26.1451
2023-04-30T09:31:53.155Z,26.1741
2023-04-30T09:32:54.907Z,26.2086
2023-04-30T09:33:56.346Z,26.2057
2023-04-30T09:34:58.310Z,26.2351
2023-04-30T09:36:00.678Z,26.2252
2023-04-30T09:37:01.395Z,26.2827
2023-04-30T09:38:03.031Z,26.3698
2023-04-30T09:39:04.724Z,26.4602
2023-04-30T09:40:06.303Z,26.5405
2023-04-30T09:41:07.976Z,26.6023
2023-04-30T09:42:10.600Z,26.6459
2023-04-30T09:43:11.256Z,26.7102
2023-04-30T09:44:13.917Z,26.8075
2023-04-30T09:45:14.424Z,26.8197
2023-04-30T09:46:16.196Z,26.8260
2023-04-30T09:47:17.877Z,26.8166
2023-04-30T09:48:19.538Z,26.8162
2023-04-30T09:49:21.075Z,26.8677
2023-04-30T09:50:22.863Z,26.8876
2023-04-30T09:51:24.354Z,26.9339
2023-04-30T09:52:26.028Z,27.0035
2023-04-30T09:53:27.710Z,27.0417
2023-04-30T09:54:29.432Z,27.0520
2023-04-30T09:55:30.996Z,27.0953
2023-04-30T09:56:32.676Z,27.1060
2023-04-30T09:57:35.209Z,27.1541
2023-04-30T09:58:36.821Z,27.1672
2023-04-30T09:59:37.609Z,27.2350
2023-04-30T10:00:39.395Z,27.3416
2023-04-30T10:01:41.151Z,27.1508
2023-04-30T10:02:42.542Z,26.6455
2023-04-30T10:03:44.405Z,26.6124
2023-04-30T10:04:45.868Z,26.7952
2023-04-30T10:05:47.534Z,26.8780
2023-04-30T10:06:49.273Z,26.9949
2023-04-30T10:07:50.801Z,27.1534
2023-04-30T10:08:52.488Z,27.3556
2023-04-30T10:09:55.262Z,27.5049
2023-04-30T10:10:55.746Z,27.5766
2023-04-30T10:11:57.362Z,27.4088
2023-04-30T10:12:59.113Z,27.0125
2023-04-30T10:14:00.692Z,26.8104
2023-04-30T10:15:02.360Z,26.9254
2023-04-30T10:16:03.956Z,27.0694
2023-04-30T10:17:05.785Z,27.1767
2023-04-30T10:18:07.363Z,27.2494
2023-04-30T10:19:08.962Z,27.3159
2023-04-30T10:20:10.515Z,27.3521
2023-04-30T10:21:12.239Z,27.4069
2023-04-30T10:22:14.814Z,27.1869
2023-04-30T10:23:16.389Z,26.8640
2023-04-30T10:24:17.160Z,26.7969
2023-04-30T10:25:18.822Z,26.8618
2023-04-30T10:26:20.437Z,26.9589
2023-04-30T10:27:22.168Z,27.1230
2023-04-30T10:28:24.721Z,27.3798
2023-04-30T10:29:26.234Z,27.6012
2023-04-30T10:30:27.085Z,27.7855
2023-04-30T10:31:28.733Z,27.6185
2023-04-30T10:32:30.717Z,27.3410
2023-04-30T10:33:31.953Z,26.9567
2023-04-30T10:34:33.691Z,26.9098
2023-04-30T10:35:35.247Z,27.0816
2023-04-30T10:36:37.015Z,27.2769
2023-04-30T10:37:38.572Z,27.4515
2023-04-30T10:38:40.374Z,27.6072
2023-04-30T10:39:41.857Z,27.6265
2023-04-30T10:40:43.544Z,27.4568
2023-04-30T10:41:45.150Z,27.1378
2023-04-30T10:42:46.886Z,26.8488
2023-04-30T10:43:48.496Z,26.8365
2023-04-30T10:44:50.143Z,26.9616
2023-04-30T10:45:51.863Z,27.0848
2023-04-30T10:46:53.424Z,27.1947
2023-04-30T10:47:55.059Z,27.3227
2023-04-30T10:48:56.824Z,27.2167
2023-04-30T10:49:58.311Z,27.1756
2023-04-30T10:51:00.121Z,27.2498
2023-04-30T10:52:01.620Z,27.2069
2023-04-30T10:53:03.769Z,27.0053
2023-04-30T10:54:05.865Z,26.8605
2023-04-30T10:55:06.923Z,26.9969
2023-04-30T10:56:08.287Z,27.1781
2023-04-30T10:57:09.949Z,27.2962
2023-04-30T10:58:12.786Z,27.2666
2023-04-30T10:59:13.205Z,27.3163
2023-04-30T11:00:14.837Z,27.2987
2023-04-30T11:01:16.557Z,27.0571
2023-04-30T11:02:19.066Z,26.9920
2023-04-30T11:03:19.820Z,26.9700
2023-04-30T11:04:21.558Z,27.0152
2023-04-30T11:05:23.055Z,27.0249
2023-04-30T11:06:24.778Z,27.0323
2023-04-30T11:07:26.373Z,27.0641
2023-04-30T11:08:29.327Z,27.1736
2023-04-30T11:09:29.613Z,27.2824
2023-04-30T11:10:31.397Z,27.2935
2023-04-30T11:11:32.953Z,27.3254
2023-04-30T11:12:34.848Z,27.3317
2023-04-30T11:13:36.364Z,27.1631
2023-04-30T11:14:37.932Z,26.7348
2023-04-30T11:15:39.706Z,26.5011
2023-04-30T11:16:41.309Z,26.6223
2023-04-30T11:17:42.950Z,26.7736
2023-04-30T11:18:44.495Z,26.8800
2023-04-30T11:19:46.248Z,26.9799
2023-04-30T11:20:47.765Z,27.1315
2023-04-30T11:21:49.965Z,27.3566
2023-04-30T11:22:51.099Z,27.4443
2023-04-30T11:23:52.805Z,27.1914
2023-04-30T11:24:54.374Z,27.1997
2023-04-30T11:25:56.055Z,27.0409
2023-04-30T11:26:57.670Z,26.7591
2023-04-30T11:27:59.395Z,26.5194
2023-04-30T11:29:01.304Z,26.7003
2023-04-30T11:30:02.875Z,26.8872
2023-04-30T11:31:04.350Z,27.1345
2023-04-30T11:32:05.961Z,27.3135
2023-04-30T11:33:07.631Z,27.4648
2023-04-30T11:34:09.469Z,27.5731
2023-04-30T11:35:10.919Z,27.3880
2023-04-30T11:36:12.586Z,27.1740
2023-04-30T11:37:14.250Z,27.0684
2023-04-30T11:38:15.789Z,27.0070
2023-04-30T11:39:17.541Z,27.0703
2023-04-30T11:40:19.153Z,27.1426
2023-04-30T11:41:21.747Z,27.3098
2023-04-30T11:42:22.394Z,27.3800
2023-04-30T11:43:24.087Z,27.1345
2023-04-30T11:44:25.700Z,27.0834
2023-04-30T11:45:27.464Z,27.2621
2023-04-30T11:46:29.090Z,27.3478
2023-04-30T11:47:30.735Z,27.3013
2023-04-30T11:48:32.235Z,27.0329
2023-04-30T11:49:34.456Z,26.9641
2023-04-30T11:50:35.596Z,27.0318
2023-04-30T11:51:37.294Z,27.1604
2023-04-30T11:52:38.815Z,27.2518
2023-04-30T11:53:40.581Z,27.3334
2023-04-30T11:54:42.242Z,27.4112
2023-04-30T11:55:45.850Z,27.4197
2023-04-30T11:56:45.384Z,27.2582
2023-04-30T11:57:47.073Z,27.1128
2023-04-30T11:58:48.744Z,27.1734
2023-04-30T11:59:50.387Z,27.4515
2023-04-30T12:00:52.036Z,27.7313
2023-04-30T12:01:53.766Z,27.9371
2023-04-30T12:02:55.449Z,28.1560
2023-04-30T12:03:57.066Z,28.2573
2023-04-30T12:04:58.621Z,28.1823
2023-04-30T12:06:00.465Z,28.0114
2023-04-30T12:07:01.889Z,27.8411
2023-04-30T12:08:03.580Z,27.7352
2023-04-30T12:09:05.217Z,27.5489
2023-04-30T12:10:06.870Z,27.4998
2023-04-30T12:11:08.574Z,27.5182
2023-04-30T12:12:10.190Z,27.4714
2023-04-30T12:13:11.777Z,27.3964
2023-04-30T12:14:13.486Z,27.2841
2023-04-30T12:15:15.083Z,27.2079
2023-04-30T12:16:16.825Z,27.2574
2023-04-30T12:17:18.452Z,27.3075
2023-04-30T12:18:20.027Z,27.3116
2023-04-30T12:19:21.746Z,27.3619
2023-04-30T12:20:23.326Z,27.3644
2023-04-30T12:21:25.084Z,27.3500
2023-04-30T12:22:26.618Z,27.2362
2023-04-30T12:23:28.311Z,27.0284
2023-04-30T12:24:29.995Z,26.8831
2023-04-30T12:25:31.600Z,26.9388